Time;durP1;ratioP1;P1;durP2;ratioP2;P2;SDS_P1;SDS_P2;PMS_P1;PMS_P2;Temp;Humidity;BMP_temperature;BMP_pressure;BME280_temperature;BME280_humidity;BME280_pressure;Samples;Min_cycle;Max_cycle;Signal;HPM_P1;HPM_P2
2024/01/16 00:00:51;;;;;;;13.02;3.60;;;-0.20;99.90;;;;;;5069969;28;20760;-66
2024/01/16 00:03:16;;;;;;;11.55;3.67;;;-0.20;99.90;;;;;;5067243;28;20424;-66
2024/01/16 00:05:42;;;;;;;12.10;3.72;;;-0.20;99.90;;;;;;5077475;28;20916;-65
2024/01/16 00:08:08;;;;;;;11.13;3.70;;;-0.30;99.90;;;;;;5069856;28;20388;-65
2024/01/16 00:10:33;;;;;;;11.93;3.90;;;-0.30;99.90;;;;;;5067982;28;20483;-65
2024/01/16 00:12:59;;;;;;;12.00;3.58;;;-0.30;99.90;;;;;;5067816;28;20431;-65
2024/01/16 00:15:25;;;;;;;13.88;4.07;;;-0.30;99.90;;;;;;5051818;28;20498;-65
2024/01/16 00:17:51;;;;;;;9.90;3.83;;;-0.40;99.90;;;;;;5052169;28;20494;-66
2024/01/16 00:20:17;;;;;;;11.52;3.53;;;-0.50;99.90;;;;;;5067468;28;20919;-65
2024/01/16 00:22:42;;;;;;;11.48;3.83;;;-0.50;99.90;;;;;;5069447;28;20415;-66
2024/01/16 00:25:11;;;;;;;13.83;4.30;;;-0.50;99.90;;;;;;5069222;28;20445;-65
2024/01/16 00:27:37;;;;;;;15.20;3.50;;;-0.50;99.90;;;;;;5068928;28;20399;-66
2024/01/16 00:30:03;;;;;;;11.93;3.60;;;-0.60;99.90;;;;;;5068560;28;20388;-66
2024/01/16 00:32:32;;;;;;;12.82;3.58;;;-0.60;99.90;;;;;;5071066;28;20415;-66
2024/01/16 00:34:58;;;;;;;14.60;3.73;;;-0.60;99.90;;;;;;5066956;28;20438;-65
2024/01/16 00:37:23;;;;;;;11.57;3.80;;;-0.50;99.90;;;;;;5066755;28;20408;-65
2024/01/16 00:39:49;;;;;;;11.43;3.47;;;-0.50;99.90;;;;;;5067899;28;20508;-65
2024/01/16 00:42:15;;;;;;;12.27;3.80;;;-0.50;99.90;;;;;;5048936;28;20432;-66
2024/01/16 00:44:40;;;;;;;10.27;3.40;;;-0.50;99.90;;;;;;5068614;28;21002;-65
2024/01/16 00:47:06;;;;;;;10.83;3.60;;;-0.60;99.90;;;;;;5068220;28;20395;-65
2024/01/16 00:49:32;;;;;;;10.67;3.50;;;-0.60;99.90;;;;;;5067679;28;20502;-65
2024/01/16 00:51:57;;;;;;;12.85;3.60;;;-0.60;99.90;;;;;;5068236;28;20411;-65
2024/01/16 00:54:23;;;;;;;13.10;3.78;;;-0.60;99.90;;;;;;5066664;28;20415;-65
2024/01/16 00:56:49;;;;;;;12.23;3.70;;;-0.60;99.90;;;;;;5069779;28;20404;-65
2024/01/16 00:59:15;;;;;;;13.30;3.47;;;-0.60;99.90;;;;;;5067630;28;20971;-66
2024/01/16 01:01:40;;;;;;;13.07;3.67;;;-0.60;99.90;;;;;;5067579;28;20419;-65
2024/01/16 01:04:06;;;;;;;10.82;3.53;;;-0.60;99.90;;;;;;5066160;28;20896;-65
2024/01/16 01:06:32;;;;;;;13.35;3.67;;;-0.60;99.90;;;;;;5069333;28;20715;-65
2024/01/16 01:09:00;;;;;;;10.27;3.10;;;-0.60;99.90;;;;;;5069034;28;20392;-65
2024/01/16 01:11:26;;;;;;;13.05;3.60;;;-0.60;99.90;;;;;;5034750;28;20749;-65
2024/01/16 01:13:51;;;;;;;11.23;3.50;;;-0.60;99.90;;;;;;5032862;28;20416;-65
2024/01/16 01:16:17;;;;;;;12.98;3.85;;;-0.70;99.90;;;;;;5068809;28;20392;-66
2024/01/16 01:18:43;;;;;;;8.50;3.37;;;-0.70;99.90;;;;;;5049220;28;20468;-65
2024/01/16 01:21:08;;;;;;;9.13;3.50;;;-0.70;99.90;;;;;;5066845;28;20411;-65
2024/01/16 01:23:34;;;;;;;10.23;3.03;;;-0.70;99.90;;;;;;5049423;28;20416;-65
2024/01/16 01:26:00;;;;;;;9.02;3.28;;;-0.80;99.90;;;;;;5049918;28;20419;-65
2024/01/16 01:28:26;;;;;;;9.45;3.15;;;-0.80;99.90;;;;;;5066616;28;20415;-65
2024/01/16 01:30:52;;;;;;;10.25;3.58;;;-0.80;99.90;;;;;;5049789;28;20415;-65
2024/01/16 01:33:18;;;;;;;9.65;3.22;;;-0.80;99.90;;;;;;5066331;28;20427;-65
2024/01/16 01:35:44;;;;;;;10.38;3.00;;;-0.80;99.90;;;;;;5072195;28;20533;-65
2024/01/16 01:38:09;;;;;;;13.18;3.60;;;-0.80;99.90;;;;;;5068901;28;20483;-65
2024/01/16 01:40:35;;;;;;;12.20;3.30;;;-0.80;99.90;;;;;;5068781;28;20403;-65
2024/01/16 01:43:24;;;;;;;7.77;3.07;;;-0.80;99.90;;;;;;5068117;28;20923;-65
2024/01/16 01:46:18;;;;;;;10.43;3.20;;;-0.80;99.90;;;;;;5069184;28;20442;-65
2024/01/16 01:48:45;;;;;;;8.55;3.10;;;-0.80;99.90;;;;;;5070670;28;20396;-65
2024/01/16 01:51:13;;;;;;;9.10;2.90;;;-0.70;99.90;;;;;;5081791;28;20484;-65
2024/01/16 01:53:40;;;;;;;10.82;2.83;;;-0.60;99.90;;;;;;5084527;28;20411;-65
2024/01/16 01:56:10;;;;;;;8.75;2.78;;;-0.60;99.90;;;;;;5082508;28;20395;-65
2024/01/16 01:58:38;;;;;;;8.05;3.10;;;-0.50;99.90;;;;;;5076957;28;20760;-65
2024/01/16 02:01:06;;;;;;;10.30;3.50;;;-0.50;99.90;;;;;;5078549;28;20399;-65
2024/01/16 02:03:43;;;;;;;8.02;2.80;;;-0.50;99.90;;;;;;5078766;28;20408;-65
2024/01/16 02:06:10;;;;;;;10.30;3.17;;;-0.50;99.90;;;;;;5080959;28;20456;-66
2024/01/16 02:08:36;;;;;;;9.32;2.78;;;-0.50;99.90;;;;;;5083872;28;20436;-65
2024/01/16 02:11:01;;;;;;;11.60;2.90;;;-0.50;99.90;;;;;;5056671;28;20442;-66
2024/01/16 02:13:28;;;;;;;9.13;2.95;;;-0.60;99.90;;;;;;5063678;28;20421;-66
2024/01/16 02:15:53;;;;;;;10.13;3.30;;;-0.50;99.90;;;;;;5059789;28;20402;-66
2024/01/16 02:18:19;;;;;;;9.10;3.10;;;-0.60;99.90;;;;;;5065430;28;20414;-66
2024/01/16 02:20:46;;;;;;;10.10;3.22;;;-0.60;99.90;;;;;;5083950;28;20427;-66
2024/01/16 02:23:14;;;;;;;12.85;3.40;;;-0.60;99.90;;;;;;5084097;28;20948;-66
2024/01/16 02:25:43;;;;;;;11.73;3.25;;;-0.60;99.90;;;;;;5057419;28;20440;-66
2024/01/16 02:28:09;;;;;;;11.05;3.42;;;-0.70;99.90;;;;;;5068947;28;20455;-66
2024/01/16 02:30:35;;;;;;;13.75;3.15;;;-0.70;99.90;;;;;;5078812;28;20394;-66
2024/01/16 02:33:01;;;;;;;10.97;3.03;;;-0.80;99.90;;;;;;5080196;28;20419;-66
2024/01/16 02:35:26;;;;;;;8.90;2.90;;;-0.70;99.90;;;;;;5076405;28;20407;-65
2024/01/16 02:37:52;;;;;;;10.68;3.10;;;-0.80;99.90;;;;;;5085203;28;20394;-66
2024/01/16 02:40:18;;;;;;;12.65;3.10;;;-0.80;99.90;;;;;;5079589;28;20411;-66
2024/01/16 02:42:43;;;;;;;12.07;3.15;;;-0.80;99.90;;;;;;5074530;28;20434;-66
2024/01/16 02:45:09;;;;;;;14.37;3.10;;;-0.80;99.90;;;;;;5082970;28;20401;-66
2024/01/16 02:47:35;;;;;;;9.95;3.05;;;-0.80;99.90;;;;;;5084172;28;20431;-66
2024/01/16 02:50:02;;;;;;;12.00;3.13;;;-0.80;99.90;;;;;;5079822;28;20478;-66
2024/01/16 02:52:28;;;;;;;12.13;3.97;;;-0.80;99.90;;;;;;5077207;28;20416;-66
2024/01/16 02:54:53;;;;;;;10.57;3.42;;;-0.80;99.90;;;;;;5085415;28;20398;-66
2024/01/16 02:57:20;;;;;;;11.60;3.33;;;-0.70;99.90;;;;;;5062641;28;20402;-66
2024/01/16 02:59:46;;;;;;;10.60;3.10;;;-0.70;99.90;;;;;;5079982;28;20984;-66
2024/01/16 03:02:13;;;;;;;9.13;3.20;;;-0.60;99.90;;;;;;5080776;28;20421;-65
2024/01/16 03:04:39;;;;;;;13.77;3.40;;;-0.60;99.90;;;;;;5083544;28;20390;-66
2024/01/16 03:07:05;;;;;;;12.00;2.95;;;-0.60;99.90;;;;;;5080590;28;20391;-66
2024/01/16 03:09:31;;;;;;;10.50;2.90;;;-0.60;99.90;;;;;;5085270;28;20401;-66
2024/01/16 03:11:57;;;;;;;9.45;3.10;;;-0.60;99.90;;;;;;5079290;28;20936;-66
2024/01/16 03:14:23;;;;;;;7.78;2.78;;;-0.60;99.90;;;;;;5087259;28;20390;-66
2024/01/16 03:16:49;;;;;;;10.10;3.00;;;-0.60;99.90;;;;;;5080370;28;20899;-65
2024/01/16 03:19:15;;;;;;;10.17;3.57;;;-0.70;99.90;;;;;;5081628;28;20721;-66
2024/01/16 03:21:41;;;;;;;11.27;3.10;;;-0.60;99.90;;;;;;5076797;28;20469;-66
2024/01/16 03:24:07;;;;;;;11.77;3.13;;;-0.70;99.90;;;;;;5083828;28;20482;-66
2024/01/16 03:26:33;;;;;;;9.77;3.05;;;-0.70;99.90;;;;;;5082381;28;20398;-66
2024/01/16 03:28:59;;;;;;;13.25;2.97;;;-0.70;99.90;;;;;;5066798;28;20796;-66
2024/01/16 03:31:24;;;;;;;10.68;3.30;;;-0.70;99.90;;;;;;5074834;28;20918;-66
2024/01/16 03:33:50;;;;;;;15.50;3.30;;;-0.70;99.90;;;;;;5079956;28;20453;-66
2024/01/16 03:36:16;;;;;;;10.47;3.23;;;-0.70;99.90;;;;;;5061493;28;20424;-66
2024/01/16 03:38:43;;;;;;;12.33;3.33;;;-0.70;99.90;;;;;;5077873;28;20427;-65
2024/01/16 03:41:10;;;;;;;9.73;2.92;;;-0.70;99.90;;;;;;5080627;28;20435;-65
2024/01/16 03:43:36;;;;;;;12.35;3.05;;;-0.70;99.90;;;;;;5075415;28;20403;-66
2024/01/16 03:46:02;;;;;;;10.25;3.45;;;-0.80;99.90;;;;;;5084924;28;20394;-66
2024/01/16 03:48:28;;;;;;;11.25;3.40;;;-0.80;99.90;;;;;;5078112;28;20411;-66
2024/01/16 03:50:55;;;;;;;9.33;3.00;;;-0.70;99.90;;;;;;5081339;28;20875;-65
2024/01/16 03:53:22;;;;;;;16.27;3.55;;;-0.90;99.90;;;;;;5073327;28;21101;-65
2024/01/16 03:55:49;;;;;;;9.57;3.10;;;-0.80;99.90;;;;;;5079144;28;20471;-65
2024/01/16 03:58:15;;;;;;;11.40;3.30;;;-0.80;99.90;;;;;;5061306;28;20505;-65
2024/01/16 04:00:41;;;;;;;10.55;3.20;;;-0.80;99.90;;;;;;5079031;28;20416;-65
2024/01/16 04:03:07;;;;;;;10.48;3.10;;;-0.80;99.90;;;;;;5060421;28;20423;-65
2024/01/16 04:05:33;;;;;;;11.35;3.33;;;-0.80;99.90;;;;;;5085411;28;20390;-65
2024/01/16 04:07:59;;;;;;;10.07;3.30;;;-0.80;99.90;;;;;;5060612;28;20418;-65
2024/01/16 04:10:25;;;;;;;9.45;3.03;;;-0.80;99.90;;;;;;5045963;28;20759;-65
2024/01/16 04:12:51;;;;;;;10.65;3.30;;;-0.80;99.90;;;;;;5064150;28;20410;-66
2024/01/16 04:15:17;;;;;;;13.55;3.42;;;-0.80;99.90;;;;;;5058914;28;20406;-66
2024/01/16 04:17:42;;;;;;;11.73;3.38;;;-0.80;99.90;;;;;;5072747;28;20420;-65
2024/01/16 04:20:09;;;;;;;11.10;3.33;;;-0.70;99.90;;;;;;5055269;28;20427;-65
2024/01/16 04:22:35;;;;;;;9.23;3.10;;;-0.80;99.90;;;;;;5083173;28;20422;-65
2024/01/16 04:25:01;;;;;;;12.18;3.58;;;-0.70;99.90;;;;;;5080598;28;20389;-65
2024/01/16 04:27:27;;;;;;;10.48;3.42;;;-0.70;99.90;;;;;;5082250;28;20401;-65
2024/01/16 04:29:53;;;;;;;13.13;3.22;;;-0.70;99.90;;;;;;5081890;28;20481;-65
2024/01/16 04:32:19;;;;;;;12.40;3.20;;;-0.80;99.90;;;;;;5079002;28;20409;-65
2024/01/16 04:34:44;;;;;;;10.85;3.38;;;-0.70;99.90;;;;;;5064204;28;20418;-65
2024/01/16 04:37:10;;;;;;;12.07;3.27;;;-0.70;99.90;;;;;;5078107;28;20468;-65
2024/01/16 04:39:36;;;;;;;13.95;3.58;;;-0.80;99.90;;;;;;5074223;28;20414;-65
2024/01/16 04:42:02;;;;;;;10.02;3.47;;;-0.80;99.90;;;;;;5064723;28;20485;-65
2024/01/16 04:44:28;;;;;;;8.02;2.97;;;-0.80;99.90;;;;;;5059776;28;20483;-65
2024/01/16 04:46:54;;;;;;;11.52;3.15;;;-0.80;99.90;;;;;;5075519;28;20402;-65
2024/01/16 04:49:20;;;;;;;13.57;3.60;;;-0.80;99.90;;;;;;5058775;28;20787;-65
2024/01/16 04:51:45;;;;;;;10.33;3.33;;;-0.80;99.90;;;;;;5079573;28;21320;-65
2024/01/16 04:54:12;;;;;;;8.60;3.05;;;-0.80;99.90;;;;;;5082769;28;20402;-65
2024/01/16 04:56:37;;;;;;;12.47;3.93;;;-0.80;99.90;;;;;;5073924;28;20413;-65
2024/01/16 04:59:03;;;;;;;10.77;3.40;;;-0.80;99.90;;;;;;5078844;28;20392;-65
2024/01/16 05:01:29;;;;;;;11.47;3.67;;;-0.70;99.90;;;;;;5080794;28;20949;-65
2024/01/16 05:03:55;;;;;;;13.27;3.90;;;-0.70;99.90;;;;;;5073801;28;20760;-65
2024/01/16 05:06:21;;;;;;;12.37;3.40;;;-0.70;99.90;;;;;;5074318;28;20928;-65
2024/01/16 05:08:47;;;;;;;10.52;3.55;;;-0.70;99.90;;;;;;5073631;28;20402;-65
2024/01/16 05:11:13;;;;;;;12.53;3.43;;;-0.70;99.90;;;;;;5076867;28;20481;-65
2024/01/16 05:13:38;;;;;;;12.80;3.53;;;-0.70;99.90;;;;;;5079265;28;20455;-65
2024/01/16 05:16:05;;;;;;;12.90;3.50;;;-0.70;99.90;;;;;;5053607;28;20493;-64
2024/01/16 05:18:32;;;;;;;13.40;3.33;;;-0.70;99.90;;;;;;5082075;28;20488;-65
2024/01/16 05:20:58;;;;;;;11.45;3.38;;;-0.70;99.90;;;;;;5078566;28;21605;-65
2024/01/16 05:23:24;;;;;;;13.45;3.63;;;-0.70;99.90;;;;;;5079153;28;20421;-65
2024/01/16 05:25:50;;;;;;;13.03;3.03;;;-0.70;99.90;;;;;;5080131;28;20400;-65
2024/01/16 05:28:16;;;;;;;11.00;3.40;;;-0.70;99.90;;;;;;5072587;28;20438;-65
2024/01/16 05:30:41;;;;;;;14.00;3.50;;;-0.70;99.90;;;;;;5078244;28;20458;-65
2024/01/16 05:33:08;;;;;;;12.55;3.80;;;-0.70;99.90;;;;;;5066161;28;20461;-65
2024/01/16 05:35:34;;;;;;;10.30;3.35;;;-0.70;99.90;;;;;;5074712;28;20451;-65
2024/01/16 05:38:00;;;;;;;10.85;3.65;;;-0.70;99.90;;;;;;5077661;28;20406;-65
2024/01/16 05:40:26;;;;;;;11.88;3.33;;;-0.70;99.90;;;;;;5078818;28;20391;-65
2024/01/16 05:42:51;;;;;;;11.60;3.83;;;-0.70;99.90;;;;;;5084253;28;20402;-65
2024/01/16 05:45:18;;;;;;;10.93;3.30;;;-0.60;99.90;;;;;;5078700;28;20791;-65
2024/01/16 05:47:44;;;;;;;10.07;3.03;;;-0.70;99.90;;;;;;5074355;28;20465;-65
2024/01/16 05:50:10;;;;;;;10.02;3.50;;;-0.70;99.90;;;;;;5076183;28;20873;-65
2024/01/16 05:52:36;;;;;;;16.75;3.90;;;-0.70;99.90;;;;;;5060474;28;20489;-65
2024/01/16 05:55:02;;;;;;;10.40;3.22;;;-0.70;99.90;;;;;;5059987;28;20429;-65
2024/01/16 05:57:31;;;;;;;9.18;3.17;;;-0.70;99.90;;;;;;5072332;28;20439;-65
2024/01/16 05:59:57;;;;;;;12.25;3.55;;;-0.70;99.90;;;;;;5072746;28;20416;-65
2024/01/16 06:02:23;;;;;;;9.77;3.50;;;-0.70;99.90;;;;;;5075822;28;20419;-65
2024/01/16 06:04:49;;;;;;;11.35;3.42;;;-0.70;99.90;;;;;;5074253;28;20398;-65
2024/01/16 06:07:14;;;;;;;10.60;3.72;;;-0.70;99.90;;;;;;5054339;28;20418;-65
2024/01/16 06:09:41;;;;;;;8.27;3.17;;;-0.70;99.90;;;;;;5071791;28;20409;-65
2024/01/16 06:12:07;;;;;;;13.75;3.75;;;-0.70;99.90;;;;;;5078680;28;20477;-65
2024/01/16 06:14:33;;;;;;;14.27;3.80;;;-0.70;99.90;;;;;;5060733;28;20912;-65
2024/01/16 06:17:00;;;;;;;11.43;3.60;;;-0.70;99.90;;;;;;5057498;28;20415;-65
2024/01/16 06:19:25;;;;;;;10.60;3.53;;;-0.80;99.90;;;;;;5071198;28;20423;-65
2024/01/16 06:21:51;;;;;;;11.10;3.90;;;-0.70;99.90;;;;;;5070882;28;20565;-65
2024/01/16 06:24:17;;;;;;;11.33;3.87;;;-0.70;99.90;;;;;;5077661;28;20421;-65
2024/01/16 06:26:42;;;;;;;11.47;3.60;;;-0.70;99.90;;;;;;5070281;28;20437;-64
2024/01/16 06:29:08;;;;;;;10.10;3.47;;;-0.70;99.90;;;;;;5078153;28;20535;-65
2024/01/16 06:31:34;;;;;;;9.48;3.50;;;-0.70;99.90;;;;;;5081356;28;20400;-64
2024/01/16 06:34:00;;;;;;;11.25;3.85;;;-0.70;99.90;;;;;;5080197;28;20410;-65
2024/01/16 06:36:26;;;;;;;10.18;3.75;;;-0.70;99.90;;;;;;5079242;28;20445;-65
2024/01/16 06:38:52;;;;;;;11.35;4.10;;;-0.70;99.90;;;;;;5082491;28;20456;-64
2024/01/16 06:41:17;;;;;;;14.15;4.18;;;-0.70;99.90;;;;;;5079315;28;20874;-65
2024/01/16 06:43:43;;;;;;;12.13;4.35;;;-0.70;99.90;;;;;;5041000;28;20487;-65
2024/01/16 06:46:09;;;;;;;10.30;4.60;;;-0.70;99.90;;;;;;5078630;28;20386;-65
2024/01/16 06:48:37;;;;;;;11.95;4.45;;;-0.70;99.90;;;;;;5067252;28;20398;-65
2024/01/16 06:51:03;;;;;;;12.45;4.47;;;-0.70;99.90;;;;;;5058742;28;20447;-65
2024/01/16 06:53:29;;;;;;;13.27;5.10;;;-0.70;99.90;;;;;;5049639;28;20424;-65
2024/01/16 06:55:55;;;;;;;11.95;4.68;;;-0.70;99.90;;;;;;5081187;28;20408;-65
2024/01/16 06:58:21;;;;;;;11.13;5.03;;;-0.70;99.90;;;;;;5084370;28;20465;-64
2024/01/16 07:00:47;;;;;;;12.60;5.03;;;-0.70;99.90;;;;;;5044715;28;20505;-64
2024/01/16 07:03:13;;;;;;;10.50;5.10;;;-0.70;99.90;;;;;;5075152;28;20923;-64
2024/01/16 07:05:40;;;;;;;9.20;5.05;;;-0.60;99.90;;;;;;5079175;28;20793;-64
2024/01/16 07:08:07;;;;;;;12.37;5.77;;;-0.60;99.90;;;;;;5081977;28;20386;-65
2024/01/16 07:10:33;;;;;;;15.13;5.78;;;-0.60;99.90;;;;;;5078943;28;20422;-64
2024/01/16 07:12:59;;;;;;;14.35;5.50;;;-0.60;99.90;;;;;;5078669;28;20486;-64
2024/01/16 07:15:25;;;;;;;13.30;6.03;;;-0.60;99.90;;;;;;5080692;28;20429;-64
2024/01/16 07:17:51;;;;;;;11.80;6.65;;;-0.70;99.90;;;;;;5075410;28;20423;-65
2024/01/16 07:20:17;;;;;;;11.45;6.18;;;-0.60;99.90;;;;;;5080839;28;20495;-64
2024/01/16 07:22:43;;;;;;;11.52;6.18;;;-0.60;99.90;;;;;;5080368;28;20410;-65
2024/01/16 07:25:09;;;;;;;13.48;6.75;;;-0.50;99.90;;;;;;5085472;28;20403;-64
2024/01/16 07:27:35;;;;;;;11.57;6.30;;;-0.60;99.90;;;;;;5074296;28;20926;-64
2024/01/16 07:30:01;;;;;;;13.98;6.78;;;-0.60;99.90;;;;;;5076536;28;20865;-64
2024/01/16 07:32:27;;;;;;;12.77;7.22;;;-0.60;99.90;;;;;;5044375;28;20439;-64
2024/01/16 07:34:54;;;;;;;13.50;7.60;;;-0.60;99.90;;;;;;5080462;28;20522;-64
2024/01/16 07:37:19;;;;;;;17.23;7.70;;;-0.60;99.90;;;;;;5079233;28;20386;-64
2024/01/16 07:39:45;;;;;;;14.40;7.75;;;-0.60;99.90;;;;;;5077237;28;20947;-64
2024/01/16 07:42:11;;;;;;;15.77;8.00;;;-0.60;99.90;;;;;;5078538;28;20420;-65
2024/01/16 07:44:37;;;;;;;15.95;8.65;;;-0.60;99.90;;;;;;5058161;28;20790;-64
2024/01/16 07:47:03;;;;;;;16.00;8.68;;;-0.60;99.90;;;;;;5074563;28;20411;-64
2024/01/16 07:49:29;;;;;;;14.82;8.73;;;-0.70;99.90;;;;;;5079924;28;20478;-64
2024/01/16 07:51:55;;;;;;;14.88;9.35;;;-0.60;99.90;;;;;;5070046;28;20409;-64
2024/01/16 07:54:21;;;;;;;19.60;9.20;;;-0.60;99.90;;;;;;5071745;28;20446;-64
2024/01/16 07:56:47;;;;;;;16.63;9.00;;;-0.60;99.90;;;;;;5068676;28;20429;-64
2024/01/16 07:59:13;;;;;;;15.88;8.73;;;-0.60;99.90;;;;;;5078119;28;20398;-64
2024/01/16 08:01:39;;;;;;;18.13;9.27;;;-0.50;99.90;;;;;;5068791;28;20423;-64
2024/01/16 08:04:05;;;;;;;16.10;9.23;;;-0.60;99.90;;;;;;5071340;28;20714;-64
2024/01/16 08:06:31;;;;;;;20.05;9.80;;;-0.60;99.90;;;;;;5082733;28;20491;-64
2024/01/16 08:08:57;;;;;;;18.77;9.20;;;-0.50;99.90;;;;;;5079914;28;20948;-64
2024/01/16 08:11:23;;;;;;;14.27;8.90;;;-0.50;99.90;;;;;;5071547;28;20416;-64
2024/01/16 08:13:49;;;;;;;15.38;9.15;;;-0.50;99.90;;;;;;5079561;28;20465;-64
2024/01/16 08:16:15;;;;;;;15.33;9.53;;;-0.50;99.90;;;;;;5057217;28;20436;-64
2024/01/16 08:18:41;;;;;;;13.93;9.13;;;-0.50;99.90;;;;;;5082314;28;20409;-64
2024/01/16 08:21:07;;;;;;;15.93;9.30;;;-0.60;99.90;;;;;;5078978;28;20397;-64
2024/01/16 08:23:34;;;;;;;16.58;9.52;;;-0.50;99.90;;;;;;5078851;28;20413;-64
2024/01/16 08:26:00;;;;;;;15.23;9.40;;;-0.60;99.90;;;;;;5054064;28;20409;-64
2024/01/16 08:28:26;;;;;;;14.98;9.63;;;-0.50;99.90;;;;;;5077679;28;20386;-64
2024/01/16 08:30:52;;;;;;;15.05;9.80;;;-0.50;99.90;;;;;;5059781;28;20420;-64
2024/01/16 08:33:18;;;;;;;18.05;10.73;;;-0.50;99.90;;;;;;5077354;28;20751;-64
2024/01/16 08:35:44;;;;;;;16.48;10.38;;;-0.50;99.90;;;;;;5076746;28;20414;-64
2024/01/16 08:38:10;;;;;;;18.17;11.20;;;-0.40;99.90;;;;;;5075669;28;20431;-64
2024/01/16 08:40:36;;;;;;;19.80;11.10;;;-0.30;99.90;;;;;;5054391;28;20466;-64
2024/01/16 08:43:03;;;;;;;18.63;11.60;;;-0.20;99.90;;;;;;5070090;28;20439;-64
2024/01/16 08:45:29;;;;;;;18.75;12.18;;;-0.20;99.90;;;;;;5068819;28;20400;-64
2024/01/16 08:47:55;;;;;;;20.00;12.13;;;-0.10;99.90;;;;;;5068929;28;20475;-64
2024/01/16 08:50:21;;;;;;;19.93;12.07;;;-0.10;99.90;;;;;;5068326;28;20504;-64
2024/01/16 08:52:46;;;;;;;20.07;12.77;;;0.00;99.90;;;;;;5067987;28;20424;-64
2024/01/16 08:55:12;;;;;;;18.03;12.03;;;0.10;99.90;;;;;;5064613;28;20520;-64
2024/01/16 08:57:38;;;;;;;19.02;12.07;;;0.10;99.90;;;;;;5031321;28;20419;-64
2024/01/16 09:00:06;;;;;;;20.00;11.80;;;0.10;99.90;;;;;;5080280;28;20402;-64
2024/01/16 09:02:31;;;;;;;21.27;11.75;;;0.20;99.90;;;;;;5067835;28;20768;-64
2024/01/16 09:04:58;;;;;;;17.80;11.23;;;0.30;99.90;;;;;;5071180;28;20398;-64
2024/01/16 09:07:24;;;;;;;19.67;11.50;;;0.30;99.90;;;;;;5073186;28;20763;-64
2024/01/16 09:09:50;;;;;;;16.35;10.50;;;0.40;99.90;;;;;;5038770;28;20841;-64
2024/01/16 09:12:16;;;;;;;17.02;11.27;;;0.30;99.90;;;;;;5061277;28;20423;-65
2024/01/16 09:14:42;;;;;;;16.13;11.63;;;0.40;99.90;;;;;;5066173;28;20412;-64
2024/01/16 09:17:07;;;;;;;15.67;11.27;;;0.40;99.90;;;;;;5064922;28;20404;-65
2024/01/16 09:19:33;;;;;;;19.40;11.60;;;0.50;99.90;;;;;;5065661;28;20403;-64
2024/01/16 09:21:59;;;;;;;16.17;11.00;;;0.50;99.90;;;;;;5049350;28;20427;-64
2024/01/16 09:24:25;;;;;;;18.95;11.30;;;0.50;99.90;;;;;;5066619;28;20481;-65
2024/01/16 09:26:50;;;;;;;17.67;11.27;;;0.60;99.90;;;;;;5073215;28;20823;-64
2024/01/16 09:29:16;;;;;;;19.90;12.27;;;0.60;99.90;;;;;;5069839;28;20407;-65
2024/01/16 09:31:42;;;;;;;16.48;11.07;;;0.60;99.90;;;;;;5047159;28;20417;-65
2024/01/16 09:34:08;;;;;;;17.05;11.10;;;0.50;99.90;;;;;;5072602;28;20867;-65
2024/01/16 09:36:37;;;;;;;18.85;11.88;;;0.60;99.90;;;;;;5069210;28;20415;-65
2024/01/16 09:39:07;;;;;;;16.58;11.55;;;0.60;99.90;;;;;;5067831;28;20411;-64
2024/01/16 09:41:34;;;;;;;16.02;11.02;;;0.60;99.90;;;;;;5079346;28;20471;-64
2024/01/16 09:44:00;;;;;;;15.53;11.60;;;0.60;99.90;;;;;;5049039;28;20447;-65
2024/01/16 09:46:26;;;;;;;16.00;11.97;;;0.70;99.90;;;;;;5066444;28;20861;-65
2024/01/16 09:48:55;;;;;;;17.08;11.43;;;0.80;99.90;;;;;;5066432;28;20449;-65
2024/01/16 09:51:21;;;;;;;16.67;11.75;;;0.80;99.90;;;;;;5068436;28;20400;-65
2024/01/16 09:53:46;;;;;;;16.90;12.85;;;0.80;99.90;;;;;;5066856;28;20407;-65
2024/01/16 09:56:17;;;;;;;17.27;12.93;;;0.90;99.90;;;;;;5065315;28;20433;-65
2024/01/16 09:58:43;;;;;;;18.33;12.53;;;1.00;99.90;;;;;;5065432;28;20400;-65
2024/01/16 10:01:11;;;;;;;15.80;12.00;;;1.10;99.90;;;;;;5065949;28;20423;-65
2024/01/16 10:03:38;;;;;;;17.70;12.25;;;1.10;99.90;;;;;;5066448;28;20449;-65
2024/01/16 10:06:08;;;;;;;18.27;12.95;;;1.10;99.90;;;;;;5067522;28;20461;-65
2024/01/16 10:08:34;;;;;;;19.80;13.38;;;1.10;99.90;;;;;;5064890;28;20403;-65
2024/01/16 10:11:00;;;;;;;18.33;12.68;;;1.10;99.90;;;;;;5071037;28;20395;-65
2024/01/16 10:13:26;;;;;;;18.43;12.20;;;1.10;99.90;;;;;;5072146;28;20622;-65
2024/01/16 10:15:55;;;;;;;16.70;11.52;;;1.30;99.90;;;;;;5070010;28;20426;-65
2024/01/16 10:18:27;;;;;;;17.30;11.95;;;1.40;99.90;;;;;;5060857;28;20411;-65
2024/01/16 10:20:54;;;;;;;15.52;11.23;;;1.40;99.90;;;;;;5049457;28;20973;-65
2024/01/16 10:23:38;;;;;;;15.25;10.93;;;1.40;99.90;;;;;;5072133;28;20419;-65
2024/01/16 10:26:14;;;;;;;16.83;11.98;;;1.40;99.90;;;;;;5068349;28;20399;-65
2024/01/16 10:28:41;;;;;;;15.98;11.43;;;1.30;99.90;;;;;;5071751;28;20392;-65
2024/01/16 10:31:08;;;;;;;18.15;11.45;;;1.20;99.90;;;;;;5071999;28;20801;-65
2024/01/16 10:33:37;;;;;;;18.25;12.02;;;1.20;99.90;;;;;;5070271;28;20765;-65
2024/01/16 10:36:10;;;;;;;17.10;11.33;;;1.10;99.90;;;;;;5070615;28;20433;-65
2024/01/16 10:38:38;;;;;;;18.02;11.77;;;1.00;99.90;;;;;;5067548;28;20400;-65
2024/01/16 10:41:18;;;;;;;18.13;11.53;;;1.10;99.90;;;;;;5064237;28;20482;-65
2024/01/16 10:43:44;;;;;;;15.75;11.32;;;1.00;99.90;;;;;;5071587;28;20428;-66
2024/01/16 10:46:11;;;;;;;15.90;11.60;;;0.90;99.90;;;;;;5070730;28;20438;-65
2024/01/16 10:48:39;;;;;;;17.23;10.60;;;0.90;99.90;;;;;;5071401;28;20445;-66
2024/01/16 10:51:16;;;;;;;15.70;10.77;;;0.90;99.90;;;;;;5071518;28;20419;-66
2024/01/16 10:53:46;;;;;;;14.32;9.77;;;0.90;99.90;;;;;;5070052;28;20885;-65
2024/01/16 10:56:12;;;;;;;12.80;8.57;;;1.00;99.90;;;;;;5068657;28;20419;-65
2024/01/16 10:58:41;;;;;;;13.85;9.20;;;1.10;99.90;;;;;;5070553;28;20429;-66
2024/01/16 11:01:12;;;;;;;12.23;8.30;;;1.10;99.90;;;;;;5069396;28;20411;-66
2024/01/16 11:03:49;;;;;;;15.63;8.23;;;1.10;99.90;;;;;;5068221;28;20489;-66
2024/01/16 11:06:18;;;;;;;10.07;7.82;;;1.20;99.90;;;;;;5071525;28;20402;-66
2024/01/16 11:08:48;;;;;;;7.95;6.72;;;1.20;99.90;;;;;;5067416;28;20420;-66
2024/01/16 11:11:15;;;;;;;12.90;7.50;;;1.20;99.90;;;;;;5053199;28;20411;-66
2024/01/16 11:13:44;;;;;;;12.75;7.60;;;1.20;99.90;;;;;;5065643;28;20430;-66
2024/01/16 11:16:11;;;;;;;9.67;6.73;;;1.30;99.90;;;;;;5071088;28;20430;-66
2024/01/16 11:18:37;;;;;;;9.77;6.30;;;1.20;99.90;;;;;;5069721;28;20750;-66
2024/01/16 11:21:07;;;;;;;9.52;6.13;;;1.20;99.90;;;;;;5069533;28;20450;-66
2024/01/16 11:23:34;;;;;;;8.98;5.68;;;1.10;99.90;;;;;;5069506;28;20432;-66
2024/01/16 11:26:20;;;;;;;8.38;5.80;;;1.10;99.90;;;;;;5066530;28;20419;-66
2024/01/16 11:28:46;;;;;;;8.38;5.55;;;1.10;99.90;;;;;;5068707;28;20433;-66
2024/01/16 11:31:31;;;;;;;8.57;5.15;;;1.10;99.90;;;;;;5071270;28;20392;-66
2024/01/16 11:33:59;;;;;;;8.95;4.97;;;1.10;99.90;;;;;;5070493;28;20392;-66
2024/01/16 11:36:53;;;;;;;9.77;5.28;;;1.10;99.90;;;;;;5067441;28;20415;-66
2024/01/16 11:39:24;;;;;;;8.52;5.00;;;1.10;99.90;;;;;;5057561;28;20403;-66
2024/01/16 11:41:55;;;;;;;11.90;4.75;;;1.10;99.90;;;;;;5070818;28;20415;-66
2024/01/16 11:44:50;;;;;;;9.00;4.43;;;1.10;99.90;;;;;;5070444;28;20468;-66
2024/01/16 11:47:20;;;;;;;8.80;4.90;;;1.20;99.90;;;;;;5058911;28;20399;-66
2024/01/16 11:49:47;;;;;;;9.82;5.20;;;1.20;99.90;;;;;;5070329;28;20904;-66
2024/01/16 11:52:14;;;;;;;10.75;5.18;;;1.20;99.90;;;;;;5069266;28;20391;-65
2024/01/16 11:54:44;;;;;;;9.33;4.80;;;1.30;99.90;;;;;;5070399;28;20410;-66
2024/01/16 11:57:27;;;;;;;9.20;5.13;;;1.30;99.90;;;;;;5070148;28;20520;-66
2024/01/16 12:00:00;;;;;;;10.73;5.30;;;1.30;99.90;;;;;;5070453;28;20453;-66
2024/01/16 12:02:42;;;;;;;9.77;5.40;;;1.30;99.90;;;;;;5070148;28;20522;-66
2024/01/16 12:05:11;;;;;;;11.90;5.70;;;1.30;99.90;;;;;;5068923;28;20482;-65
2024/01/16 12:08:03;;;;;;;9.70;5.65;;;1.30;99.90;;;;;;5070415;28;20458;-66
2024/01/16 12:10:29;;;;;;;12.53;6.60;;;1.30;99.90;;;;;;5067174;28;20401;-66
2024/01/16 12:12:59;;;;;;;12.43;7.00;;;1.20;99.90;;;;;;5052208;28;20900;-65
2024/01/16 12:15:26;;;;;;;12.63;7.50;;;1.20;99.90;;;;;;5070076;28;20826;-66
2024/01/16 12:17:57;;;;;;;12.27;7.80;;;1.20;99.90;;;;;;5051997;28;20418;-66
2024/01/16 12:20:24;;;;;;;13.30;8.52;;;1.20;99.90;;;;;;5069841;28;20742;-65
2024/01/16 12:23:06;;;;;;;13.88;8.90;;;1.20;99.90;;;;;;5068490;28;20484;-66
2024/01/16 12:25:37;;;;;;;12.02;8.57;;;1.00;99.90;;;;;;5052005;28;20776;-65
2024/01/16 12:28:07;;;;;;;15.02;10.63;;;1.00;99.90;;;;;;5069736;28;20710;-66
2024/01/16 12:30:35;;;;;;;19.20;11.63;;;1.00;99.90;;;;;;5069143;28;20428;-65
2024/01/16 12:33:08;;;;;;;18.15;12.07;;;1.10;99.90;;;;;;5068472;28;20490;-66
2024/01/16 12:35:39;;;;;;;18.65;13.13;;;0.90;99.90;;;;;;5069594;28;20412;-66
2024/01/16 12:38:09;;;;;;;21.25;12.88;;;0.90;99.90;;;;;;5052304;28;20415;-66
2024/01/16 12:40:36;;;;;;;18.70;12.70;;;0.90;99.90;;;;;;5069803;28;20426;-66